Create Tblcommutelog Verified Points Advance Search
| # | Trip ID | Id Commuter | Trip Date | Trip Num | Current Lat | Current Lng | Delta Distance | Current Time | Activity | Activity Confidence | Current Speed | |
|---|---|---|---|---|---|---|---|---|---|---|---|---|
| 71381 | 260106_783704_16493191_0701 | 783704 | (not set) | (not set) | 39.0574848 | -77.0509795 | 0.1006 | 2026-01-06 07:04:24 | walking | 100 | 0.60350299963343 | |
| 71382 | 260106_783704_16493191_0701 | 783704 | (not set) | (not set) | 39.0575891 | -77.050411 | 0.132 | 2026-01-06 07:04:58 | walking | 100 | 0.60797339222331 | |
| 71383 | 260106_783704_16493191_0701 | 783704 | (not set) | (not set) | 39.0580499 | -77.0503336 | 0.1641 | 2026-01-06 07:06:08 | walking | 100 | 0.81361145135766 | |
| 71384 | 260106_783704_16493191_0701 | 783704 | (not set) | (not set) | 39.0580499 | -77.0503336 | 0.1641 | 2026-01-06 07:06:08 | walking | 100 | 0.81361145135766 | |
| 71385 | 260106_780745_16421763_0751 | 780745 | (not set) | (not set) | 38.987746012086 | -77.452834888604 | 12.1164 | 2026-01-06 08:20:56 | in_vehicle | 100 | 5.2348297227463 | |
| 71386 | 260106_783704_16493191_0701 | 783704 | (not set) | (not set) | 39.0584939 | -77.0504638 | 0.1955 | 2026-01-06 07:06:49 | walking | 100 | 0.61244378481318 | |
| 71387 | 260106_783704_16493191_0701 | 783704 | (not set) | (not set) | 39.0589391 | -77.0505609 | 0.2267 | 2026-01-06 07:07:22 | walking | 100 | 0.65267731812208 | |
| 71388 | 260106_783704_16493191_0701 | 783704 | (not set) | (not set) | 39.0584939 | -77.0504638 | 0.1955 | 2026-01-06 07:06:49 | walking | 100 | 0.61244378481318 | |
| 71389 | 260106_783704_16493191_0701 | 783704 | (not set) | (not set) | 39.0589391 | -77.0505609 | 0.2267 | 2026-01-06 07:07:22 | walking | 100 | 0.65267731812208 | |
| 71390 | 260106_783704_16493191_0701 | 783704 | (not set) | (not set) | 39.0593798 | -77.0506821 | 0.2577 | 2026-01-06 07:07:54 | walking | 100 | 0.6482069255322 | |
| 71391 | 260106_783704_16493191_0701 | 783704 | (not set) | (not set) | 39.0593798 | -77.0506821 | 0.2577 | 2026-01-06 07:07:54 | walking | 100 | 0.6482069255322 | |
| 71392 | 260106_783704_16493191_0701 | 783704 | (not set) | (not set) | 39.0597319 | -77.0510471 | 0.289 | 2026-01-06 07:08:29 | walking | 100 | 0.61691417740306 | |
| 71393 | 260106_783704_16493191_0701 | 783704 | (not set) | (not set) | 39.0600981 | -77.0513955 | 0.3204 | 2026-01-06 07:09:03 | walking | 100 | 0.58562142927392 | |
| 71394 | 260106_783704_16493191_0701 | 783704 | (not set) | (not set) | 39.0600981 | -77.0513955 | 0.3204 | 2026-01-06 07:09:03 | walking | 100 | 0.58562142927392 | |
| 71395 | 260106_783704_16493191_0701 | 783704 | (not set) | (not set) | 39.0597319 | -77.0510471 | 0.289 | 2026-01-06 07:08:29 | walking | 100 | 0.61691417740306 | |
| 71396 | 260106_783704_16493191_0701 | 783704 | (not set) | (not set) | 39.0603603 | -77.0518658 | 0.3515 | 2026-01-06 07:09:38 | walking | 100 | 0.60797339222331 | |
| 71397 | 260106_783704_16493191_0701 | 783704 | (not set) | (not set) | 39.0603603 | -77.0518658 | 0.3515 | 2026-01-06 07:09:38 | walking | 100 | 0.60797339222331 | |
| 71398 | 260106_780856_6461772_0805 | 780856 | (not set) | (not set) | 38.9300544582 | -77.111247542677 | 2.5287 | 2026-01-06 08:20:57 | on_bicycle | 100 | 3.8043040939855 | |
| 71399 | 260106_780856_6461772_0805 | 780856 | (not set) | (not set) | 38.9300544582 | -77.111247542677 | 2.5287 | 2026-01-06 08:20:57 | on_bicycle | 100 | 3.8043040939855 | |
| 71400 | 260106_789659_16509978_0756 | 789659 | (not set) | (not set) | 39.041735478062 | -77.058819794873 | 9.5836 | 2026-01-06 08:20:57 | in_vehicle | 100 | 6.3479574776257 |